Time;durP1;ratioP1;P1;durP2;ratioP2;P2;SDS_P1;SDS_P2;PMS_P1;PMS_P2;Temp;Humidity;BMP_temperature;BMP_pressure;BME280_temperature;BME280_humidity;BME280_pressure;Samples;Min_cycle;Max_cycle;Signal;HPM_P1;HPM_P2
2023/04/26 00:00:21;;;;;;;;;;;;;;;11.74;nan;101227.06;5053182;28;20505;-83
2023/04/26 00:02:47;;;;;;;;;;;;;;;11.67;nan;101219.19;5051575;28;19936;-83
2023/04/26 00:05:13;;;;;;;;;;;;;;;11.69;nan;101221.63;5053710;28;19951;-83
2023/04/26 00:07:38;;;;;;;;;;;;;;;11.75;nan;101229.50;5052897;28;20510;-83
2023/04/26 00:10:07;;;;;;;;;;;;;;;11.70;nan;101226.75;5049442;28;19913;-83
2023/04/26 00:12:32;;;;;;;;;;;;;;;11.65;nan;101225.84;5055240;28;20016;-83
2023/04/26 00:14:58;;;;;;;;;;;;;;;11.64;nan;101222.34;5051340;28;21640;-83
2023/04/26 00:17:26;;;;;;;;;;;;;;;11.58;nan;101238.63;5052831;28;19917;-83
2023/04/26 00:19:51;;;;;;;;;;;;;;;11.52;nan;101234.22;5051792;28;19944;-83
2023/04/26 00:22:17;;;;;;;;;;;;;;;11.47;nan;101234.94;5052826;28;20386;-83
2023/04/26 00:24:42;;;;;;;;;;;;;;;11.42;nan;101242.91;5053273;28;19916;-83
2023/04/26 00:27:09;;;;;;;;;;;;;;;11.42;nan;101240.22;5052059;28;20068;-83
2023/04/26 00:29:35;;;;;;;;;;;;;;;11.36;nan;101239.31;5049472;28;19921;-83
2023/04/26 00:32:00;;;;;;;;;;;;;;;11.32;nan;101246.22;5049450;28;19921;-83
2023/04/26 00:34:31;;;;;;;;;;;;;;;11.29;nan;101240.50;5038385;28;20386;-83
2023/04/26 00:36:56;;;;;;;;;;;;;;;11.25;nan;101237.50;5051548;28;19916;-83
2023/04/26 00:39:21;;;;;;;;;;;;;;;11.26;nan;101243.69;5048451;28;20405;-83
2023/04/26 00:41:47;;;;;;;;;;;;;;;11.28;nan;101241.56;5046818;28;19948;-83
2023/04/26 00:44:12;;;;;;;;;;;;;;;11.29;nan;101229.78;5050171;28;19920;-83
2023/04/26 00:46:38;;;;;;;;;;;;;;;11.30;nan;101240.25;5050586;28;19917;-83
2023/04/26 00:49:03;;;;;;;;;;;;;;;11.31;nan;101233.03;5048824;28;19924;-83
2023/04/26 00:51:30;;;;;;;;;;;;;;;11.27;nan;101237.25;5048116;28;19924;-83
2023/04/26 00:53:56;;;;;;;;;;;;;;;11.19;nan;101241.97;5032486;28;19921;-83
2023/04/26 00:56:23;;;;;;;;;;;;;;;11.12;nan;101243.16;5047531;28;20333;-82
2023/04/26 00:58:49;;;;;;;;;;;;;;;11.05;nan;101237.94;5029459;28;20000;-83
2023/04/26 01:01:14;;;;;;;;;;;;;;;11.03;nan;101242.72;5049014;28;20008;-83
2023/04/26 01:03:40;;;;;;;;;;;;;;;11.03;nan;101242.72;5049471;28;19960;-83
2023/04/26 01:06:05;;;;;;;;;;;;;;;11.02;nan;101235.72;5034113;28;19987;-83
2023/04/26 01:08:31;;;;;;;;;;;;;;;10.99;nan;101246.94;5051644;28;19916;-83
2023/04/26 01:10:57;;;;;;;;;;;;;;;10.94;nan;101244.13;5049611;28;19995;-83
2023/04/26 01:13:24;;;;;;;;;;;;;;;10.97;nan;101246.38;5050331;28;19975;-84
2023/04/26 01:15:50;;;;;;;;;;;;;;;10.93;nan;101249.75;5049097;28;20011;-82
2023/04/26 01:18:16;;;;;;;;;;;;;;;10.87;nan;101252.31;5031189;28;20011;-83
2023/04/26 01:20:41;;;;;;;;;;;;;;;10.84;nan;101241.28;5031634;28;20003;-83
2023/04/26 01:23:07;;;;;;;;;;;;;;;10.79;nan;101243.84;5049871;28;19929;-83
2023/04/26 01:25:33;;;;;;;;;;;;;;;10.78;nan;101244.91;5047948;28;19924;-83
2023/04/26 01:27:59;;;;;;;;;;;;;;;10.78;nan;101236.88;5032863;28;19920;-83
2023/04/26 01:30:24;;;;;;;;;;;;;;;10.73;nan;101250.97;5049610;28;19924;-83
2023/04/26 01:32:49;;;;;;;;;;;;;;;10.73;nan;101247.47;5047913;28;19916;-83
2023/04/26 01:35:15;;;;;;;;;;;;;;;10.76;nan;101247.81;5049621;28;19994;-83
2023/04/26 01:37:40;;;;;;;;;;;;;;;10.78;nan;101245.72;5051024;28;19923;-83
2023/04/26 01:40:06;;;;;;;;;;;;;;;10.77;nan;101249.47;5048577;28;19916;-83
2023/04/26 01:42:32;;;;;;;;;;;;;;;10.73;nan;101252.81;5046399;28;19932;-83
2023/04/26 01:44:57;;;;;;;;;;;;;;;10.76;nan;101252.34;5049513;28;19921;-83
2023/04/26 01:47:23;;;;;;;;;;;;;;;10.74;nan;101255.25;5049837;28;20019;-83
2023/04/26 01:49:49;;;;;;;;;;;;;;;10.70;nan;101255.97;5049109;28;19939;-83
2023/04/26 01:52:16;;;;;;;;;;;;;;;10.67;nan;101253.78;5048662;28;20417;-83
2023/04/26 01:54:41;;;;;;;;;;;;;;;10.59;nan;101253.09;5047387;28;19917;-83
2023/04/26 01:57:07;;;;;;;;;;;;;;;10.57;nan;101257.84;5049520;28;20016;-83
2023/04/26 01:59:32;;;;;;;;;;;;;;;10.57;nan;101255.19;5049963;28;19917;-83
2023/04/26 02:01:58;;;;;;;;;;;;;;;10.49;nan;101255.56;5047040;28;19987;-83
2023/04/26 02:04:23;;;;;;;;;;;;;;;10.48;nan;101250.44;5048323;28;19921;-83
2023/04/26 02:06:48;;;;;;;;;;;;;;;10.51;nan;101253.44;5049372;28;20007;-83
2023/04/26 02:09:14;;;;;;;;;;;;;;;10.52;nan;101256.94;5048667;28;19917;-82
2023/04/26 02:11:40;;;;;;;;;;;;;;;10.50;nan;101249.16;5030753;28;19960;-83
2023/04/26 02:14:05;;;;;;;;;;;;;;;10.54;nan;101257.53;5050011;28;20011;-83
2023/04/26 02:16:31;;;;;;;;;;;;;;;10.55;nan;101256.47;5048761;28;20480;-83
2023/04/26 02:18:58;;;;;;;;;;;;;;;10.49;nan;101257.41;5047267;28;19967;-83
2023/04/26 02:21:23;;;;;;;;;;;;;;;10.47;nan;101254.16;5047052;28;19917;-83
2023/04/26 02:23:49;;;;;;;;;;;;;;;10.50;nan;101251.00;5042953;28;19921;-83
2023/04/26 02:26:14;;;;;;;;;;;;;;;10.40;nan;101248.09;5046284;28;19921;-83
2023/04/26 02:28:40;;;;;;;;;;;;;;;10.36;nan;101241.59;5046026;28;19974;-83
2023/04/26 02:31:06;;;;;;;;;;;;;;;10.37;nan;101252.06;5046374;28;19924;-83
2023/04/26 02:33:32;;;;;;;;;;;;;;;10.42;nan;101252.19;5046778;28;19917;-83
2023/04/26 02:35:57;;;;;;;;;;;;;;;10.37;nan;101244.03;5046051;28;19917;-84
2023/04/26 02:38:25;;;;;;;;;;;;;;;10.25;nan;101240.56;5046585;28;19932;-83
2023/04/26 02:40:56;;;;;;;;;;;;;;;10.22;nan;101243.69;5043853;28;19919;-83
2023/04/26 02:43:21;;;;;;;;;;;;;;;10.20;nan;101253.78;5049598;28;20359;-84
2023/04/26 02:45:47;;;;;;;;;;;;;;;10.21;nan;101242.06;5031602;28;20010;-83
2023/04/26 02:48:12;;;;;;;;;;;;;;;10.20;nan;101245.75;5048346;28;19956;-84
2023/04/26 02:50:37;;;;;;;;;;;;;;;10.25;nan;101245.91;5046104;28;19951;-83
2023/04/26 02:53:03;;;;;;;;;;;;;;;10.17;nan;101249.72;5045349;28;20282;-84
2023/04/26 02:55:28;;;;;;;;;;;;;;;10.10;nan;101248.22;5046640;28;19948;-83
2023/04/26 02:57:53;;;;;;;;;;;;;;;10.11;nan;101244.47;5049121;28;19975;-83
2023/04/26 03:00:19;;;;;;;;;;;;;;;10.10;nan;101245.53;5046702;28;19974;-83
2023/04/26 03:02:44;;;;;;;;;;;;;;;10.11;nan;101245.28;5045990;28;20378;-84
2023/04/26 03:05:10;;;;;;;;;;;;;;;10.09;nan;101247.41;5047516;28;19913;-83
2023/04/26 03:07:35;;;;;;;;;;;;;;;10.08;nan;101244.94;5047504;28;19917;-83
2023/04/26 03:10:01;;;;;;;;;;;;;;;10.06;nan;101249.72;5047053;28;19960;-83
2023/04/26 03:12:26;;;;;;;;;;;;;;;10.02;nan;101248.53;5050100;28;19921;-83
2023/04/26 03:14:52;;;;;;;;;;;;;;;9.93;nan;101248.91;5049488;28;20382;-83
2023/04/26 03:17:17;;;;;;;;;;;;;;;9.86;nan;101253.53;5048368;28;19921;-83
2023/04/26 03:19:42;;;;;;;;;;;;;;;9.81;nan;101252.59;5046460;28;19917;-83
2023/04/26 03:22:10;;;;;;;;;;;;;;;9.81;nan;101257.94;5046497;28;19936;-83
2023/04/26 03:24:35;;;;;;;;;;;;;;;9.80;nan;101254.47;5044323;28;19913;-86
2023/04/26 03:27:01;;;;;;;;;;;;;;;9.78;nan;101261.09;5045483;28;19927;-85
2023/04/26 03:29:26;;;;;;;;;;;;;;;9.74;nan;101259.91;5028125;28;20016;-84
2023/04/26 03:31:52;;;;;;;;;;;;;;;9.77;nan;101270.97;5047331;28;19916;-84
2023/04/26 03:34:17;;;;;;;;;;;;;;;9.82;nan;101264.94;5045612;28;21750;-84
2023/04/26 03:36:42;;;;;;;;;;;;;;;9.81;nan;101269.47;5047268;28;19959;-84
2023/04/26 03:39:08;;;;;;;;;;;;;;;9.82;nan;101264.94;5046913;28;20010;-84
2023/04/26 03:41:35;;;;;;;;;;;;;;;9.83;nan;101270.03;5047668;28;20022;-84
2023/04/26 03:44:03;;;;;;;;;;;;;;;9.83;nan;101272.72;5042989;28;19924;-83
2023/04/26 03:46:28;;;;;;;;;;;;;;;9.83;nan;101266.56;5041312;28;19917;-84
2023/04/26 03:48:54;;;;;;;;;;;;;;;9.77;nan;101270.16;5046656;28;19939;-84
2023/04/26 03:51:19;;;;;;;;;;;;;;;9.80;nan;101267.84;5047594;28;19951;-84
2023/04/26 03:53:47;;;;;;;;;;;;;;;9.79;nan;101266.22;5044563;28;19916;-84
2023/04/26 03:56:12;;;;;;;;;;;;;;;9.77;nan;101270.97;5043999;28;19921;-84
2023/04/26 03:58:38;;;;;;;;;;;;;;;9.73;nan;101272.50;5024990;28;19939;-85
2023/04/26 04:01:03;;;;;;;;;;;;;;;9.72;nan;101281.56;5048337;28;19917;-84
2023/04/26 04:03:29;;;;;;;;;;;;;;;9.73;nan;101283.19;5047366;28;19929;-83
2023/04/26 04:05:55;;;;;;;;;;;;;;;9.71;nan;101282.59;5045797;28;19921;-84
2023/04/26 04:08:20;;;;;;;;;;;;;;;9.75;nan;101293.66;5043626;28;19952;-84
2023/04/26 04:10:45;;;;;;;;;;;;;;;9.80;nan;101294.59;5051182;28;19917;-83
2023/04/26 04:13:11;;;;;;;;;;;;;;;9.81;nan;101292.72;5050581;28;19917;-84
2023/04/26 04:15:36;;;;;;;;;;;;;;;9.84;nan;101284.25;5050466;28;20343;-84
2023/04/26 04:18:02;;;;;;;;;;;;;;;9.84;nan;101298.44;5048689;28;19967;-83
2023/04/26 04:20:27;;;;;;;;;;;;;;;9.87;nan;101289.94;5054838;22;19933;-79
2023/04/26 04:22:53;;;;;;;;;;;;;;;9.84;nan;101294.94;5045161;28;20411;-79
2023/04/26 04:25:20;;;;;;;;;;;;;;;9.84;nan;101303.78;5040975;28;19931;-79
2023/04/26 04:27:47;;;;;;;;;;;;;;;9.85;nan;101308.09;5039833;28;19920;-79
2023/04/26 04:30:13;;;;;;;;;;;;;;;9.85;nan;101299.25;5025249;28;19928;-79
2023/04/26 04:32:39;;;;;;;;;;;;;;;9.91;nan;101299.16;5017840;28;19928;-79
2023/04/26 04:35:05;;;;;;;;;;;;;;;9.95;nan;101304.88;5021781;28;19922;-79
2023/04/26 04:37:32;;;;;;;;;;;;;;;9.89;nan;101301.25;5016212;28;19921;-79
2023/04/26 04:39:58;;;;;;;;;;;;;;;9.96;nan;101306.50;5016175;28;20397;-79
2023/04/26 04:42:25;;;;;;;;;;;;;;;9.89;nan;101314.66;5015884;28;19921;-79
2023/04/26 04:44:51;;;;;;;;;;;;;;;9.87;nan;101316.72;5019227;28;20379;-79
2023/04/26 04:47:16;;;;;;;;;;;;;;;9.87;nan;101314.03;5017012;28;19932;-79
2023/04/26 04:49:42;;;;;;;;;;;;;;;9.91;nan;101320.59;5014873;28;19918;-80
2023/04/26 04:52:07;;;;;;;;;;;;;;;9.94;nan;101322.78;5015760;28;19925;-79
2023/04/26 04:54:33;;;;;;;;;;;;;;;10.04;nan;101329.44;5015647;28;19979;-79
2023/04/26 04:56:58;;;;;;;;;;;;;;;10.11;nan;101338.19;5014833;28;20282;-79
2023/04/26 04:59:24;;;;;;;;;;;;;;;10.19;nan;101327.13;5017110;28;19921;-79
2023/04/26 05:01:49;;;;;;;;;;;;;;;10.20;nan;101328.75;5018718;28;20191;-80
2023/04/26 05:04:15;;;;;;;;;;;;;;;10.24;nan;101332.66;5018138;28;20031;-80
2023/04/26 05:06:41;;;;;;;;;;;;;;;10.26;nan;101339.41;5016513;28;20389;-79
2023/04/26 05:09:06;;;;;;;;;;;;;;;10.26;nan;101333.25;5015786;28;19932;-80
2023/04/26 05:11:32;;;;;;;;;;;;;;;10.41;nan;101336.28;5022740;28;19925;-80
2023/04/26 05:13:57;;;;;;;;;;;;;;;10.41;nan;101344.31;5015520;28;20208;-80
2023/04/26 05:16:23;;;;;;;;;;;;;;;10.36;nan;101341.50;5016606;28;19983;-79
2023/04/26 05:18:48;;;;;;;;;;;;;;;10.33;nan;101346.50;5016519;28;20389;-80
2023/04/26 05:21:13;;;;;;;;;;;;;;;10.34;nan;101348.16;5018959;28;19922;-80
2023/04/26 05:23:39;;;;;;;;;;;;;;;10.35;nan;101350.59;5015473;28;19976;-79
2023/04/26 05:26:05;;;;;;;;;;;;;;;10.45;nan;101342.00;5016455;28;19921;-79
2023/04/26 05:28:30;;;;;;;;;;;;;;;10.53;nan;101333.59;5014899;28;19928;-78
2023/04/26 05:30:55;;;;;;;;;;;;;;;10.57;nan;101346.28;5017499;28;19926;-80
2023/04/26 05:33:21;;;;;;;;;;;;;;;10.63;nan;101349.09;5018079;28;19921;-79
2023/04/26 05:35:47;;;;;;;;;;;;;;;10.66;nan;101360.16;5016212;28;19921;-80
2023/04/26 05:38:12;;;;;;;;;;;;;;;10.66;nan;101349.44;5017845;28;20473;-79
2023/04/26 05:40:37;;;;;;;;;;;;;;;10.80;nan;101361.56;5017953;28;19967;-80
2023/04/26 05:43:03;;;;;;;;;;;;;;;10.81;nan;101360.50;5018271;28;19932;-79
2023/04/26 05:45:28;;;;;;;;;;;;;;;10.84;nan;101362.72;5017315;28;19925;-79
2023/04/26 05:47:54;;;;;;;;;;;;;;;10.89;nan;101356.63;5017415;28;20002;-79
2023/04/26 05:50:20;;;;;;;;;;;;;;;10.90;nan;101363.63;5015702;28;19928;-80
2023/04/26 05:52:45;;;;;;;;;;;;;;;10.94;nan;101362.09;5017410;28;19921;-80
2023/04/26 05:55:12;;;;;;;;;;;;;;;10.98;nan;101373.19;5014170;28;19921;-79
2023/04/26 05:57:37;;;;;;;;;;;;;;;11.06;nan;101356.72;5017662;28;19965;-79
2023/04/26 06:00:04;;;;;;;;;;;;;;;11.14;nan;101369.78;5015686;28;19917;-80
2023/04/26 06:02:29;;;;;;;;;;;;;;;11.15;nan;101361.50;5016008;28;20347;-80
2023/04/26 06:04:54;;;;;;;;;;;;;;;11.20;nan;101363.47;5014994;28;19921;-79
2023/04/26 06:07:20;;;;;;;;;;;;;;;11.33;nan;101367.75;5015435;28;19921;-80
2023/04/26 06:09:45;;;;;;;;;;;;;;;11.50;nan;101360.59;5014281;28;19925;-80
2023/04/26 06:12:10;;;;;;;;;;;;;;;11.67;nan;101368.66;5014652;28;19971;-80
2023/04/26 06:14:36;;;;;;;;;;;;;;;11.75;nan;101363.75;5016681;28;19971;-80
2023/04/26 06:17:02;;;;;;;;;;;;;;;11.82;nan;101376.22;5013495;28;19928;-80
2023/04/26 06:19:27;;;;;;;;;;;;;;;11.97;nan;101387.25;5013668;28;19932;-80
2023/04/26 06:21:54;;;;;;;;;;;;;;;12.02;nan;101379.28;5013600;28;19944;-80
2023/04/26 06:24:19;;;;;;;;;;;;;;;12.12;nan;101382.16;5014237;28;19932;-78
2023/04/26 06:26:45;;;;;;;;;;;;;;;12.15;nan;101373.59;5013065;28;20283;-77
2023/04/26 06:29:10;;;;;;;;;;;;;;;12.25;nan;101383.72;5012452;28;19953;-77
2023/04/26 06:31:35;;;;;;;;;;;;;;;12.36;nan;101386.31;5013317;28;19932;-78
2023/04/26 06:34:02;;;;;;;;;;;;;;;12.54;nan;101392.50;5014267;28;19925;-78
2023/04/26 06:36:27;;;;;;;;;;;;;;;12.65;nan;101387.03;5014430;28;19970;-78
2023/04/26 06:38:52;;;;;;;;;;;;;;;12.80;nan;101397.22;5010909;28;20516;-79
2023/04/26 06:41:18;;;;;;;;;;;;;;;12.94;nan;101390.41;5012952;28;19936;-78
2023/04/26 06:43:43;;;;;;;;;;;;;;;13.11;nan;101392.25;5011419;28;20391;-78
2023/04/26 06:46:08;;;;;;;;;;;;;;;13.11;nan;101389.56;5019568;28;20167;-79
2023/04/26 06:48:34;;;;;;;;;;;;;;;13.15;nan;101388.00;5009423;28;20036;-78
2023/04/26 06:51:03;;;;;;;;;;;;;;;13.24;nan;101398.09;5013552;28;19917;-78
2023/04/26 06:53:29;;;;;;;;;;;;;;;13.21;nan;101392.41;5012616;28;19944;-78
2023/04/26 06:55:56;;;;;;;;;;;;;;;13.29;nan;101405.44;5015145;28;19921;-79
2023/04/26 06:58:21;;;;;;;;;;;;;;;13.28;nan;101388.47;5011304;28;20035;-77
2023/04/26 07:00:46;;;;;;;;;;;;;;;13.29;nan;101405.44;5011929;28;19933;-78
2023/04/26 07:03:12;;;;;;;;;;;;;;;13.24;nan;101398.09;5014342;28;19925;-77
2023/04/26 07:05:38;;;;;;;;;;;;;;;13.26;nan;101409.41;5013246;28;20034;-78
2023/04/26 07:08:03;;;;;;;;;;;;;;;13.37;nan;101396.91;5011123;28;19944;-78
2023/04/26 07:10:28;;;;;;;;;;;;;;;13.41;nan;101403.41;5013164;28;19980;-78
2023/04/26 07:12:54;;;;;;;;;;;;;;;13.39;nan;101404.75;5011296;28;19959;-78
2023/04/26 07:15:20;;;;;;;;;;;;;;;13.47;nan;101401.63;5011142;28;19921;-78
2023/04/26 07:17:45;;;;;;;;;;;;;;;13.66;nan;101412.88;5015006;28;19921;-78
2023/04/26 07:20:11;;;;;;;;;;;;;;;13.80;nan;101400.63;5013273;28;19917;-79
2023/04/26 07:22:36;;;;;;;;;;;;;;;13.89;nan;101402.63;5012660;28;19930;-78
2023/04/26 07:25:01;;;;;;;;;;;;;;;14.05;nan;101400.91;5009763;28;20543;-79
2023/04/26 07:27:27;;;;;;;;;;;;;;;14.32;nan;101402.75;5009861;28;19994;-79
2023/04/26 07:29:53;;;;;;;;;;;;;;;14.59;nan;101395.44;5011410;28;20441;-78
2023/04/26 07:32:18;;;;;;;;;;;;;;;14.72;nan;101408.50;5014542;28;19925;-79
2023/04/26 07:34:44;;;;;;;;;;;;;;;14.77;nan;101396.91;5011138;28;20395;-78
2023/04/26 07:37:09;;;;;;;;;;;;;;;14.85;nan;101398.31;5012343;28;19916;-77
2023/04/26 07:39:34;;;;;;;;;;;;;;;14.89;nan;101402.09;5012948;28;19984;-77
2023/04/26 07:42:00;;;;;;;;;;;;;;;14.96;nan;101408.91;5016349;28;19921;-78
2023/04/26 07:44:25;;;;;;;;;;;;;;;14.97;nan;101407.84;5016835;28;19921;-78
2023/04/26 07:46:51;;;;;;;;;;;;;;;15.11;nan;101414.41;5015332;28;20053;-78
2023/04/26 07:49:16;;;;;;;;;;;;;;;15.16;nan;101402.81;5015326;28;20451;-78
2023/04/26 07:51:43;;;;;;;;;;;;;;;15.13;nan;101411.44;5017121;28;19928;-78
2023/04/26 07:54:08;;;;;;;;;;;;;;;15.18;nan;101408.75;5015028;28;19921;-78
2023/04/26 07:56:33;;;;;;;;;;;;;;;15.33;nan;101416.94;5013888;28;20192;-78
2023/04/26 07:58:59;;;;;;;;;;;;;;;15.35;nan;101419.34;5015032;28;19943;-79
2023/04/26 08:01:24;;;;;;;;;;;;;;;15.46;nan;101415.63;5013632;28;19925;-79
2023/04/26 08:03:50;;;;;;;;;;;;;;;15.60;nan;101418.66;5016375;28;19929;-79
2023/04/26 08:06:15;;;;;;;;;;;;;;;15.64;nan;101417.91;5012987;28;19936;-77
2023/04/26 08:08:44;;;;;;;;;;;;;;;15.81;nan;101422.25;5013097;28;19956;-78
2023/04/26 08:11:09;;;;;;;;;;;;;;;15.96;nan;101420.38;5014875;28;19975;-78
2023/04/26 08:13:35;;;;;;;;;;;;;;;15.90;nan;101429.56;5018148;28;20322;-78
2023/04/26 08:16:00;;;;;;;;;;;;;;;15.81;nan;101423.06;5020708;28;19960;-77
2023/04/26 08:18:26;;;;;;;;;;;;;;;15.84;nan;101427.94;5012937;28;20117;-78
2023/04/26 08:20:54;;;;;;;;;;;;;;;15.78;nan;101426.28;5016221;28;20433;-78
2023/04/26 08:23:19;;;;;;;;;;;;;;;15.94;nan;101427.94;5016229;28;19932;-79
2023/04/26 08:25:44;;;;;;;;;;;;;;;16.15;nan;101422.56;5014057;28;20116;-78
2023/04/26 08:28:13;;;;;;;;;;;;;;;16.27;nan;101433.94;5018220;28;19924;-78
2023/04/26 08:30:38;;;;;;;;;;;;;;;16.33;nan;101430.16;5013025;28;20012;-77
2023/04/26 08:33:04;;;;;;;;;;;;;;;16.52;nan;101435.88;5014120;28;19925;-79
2023/04/26 08:35:29;;;;;;;;;;;;;;;16.67;nan;101430.47;5015717;28;19925;-77
2023/04/26 08:37:55;;;;;;;;;;;;;;;16.84;nan;101436.41;5020810;28;19999;-79
2023/04/26 08:40:22;;;;;;;;;;;;;;;16.86;nan;101449.66;5014823;28;19933;-78
2023/04/26 08:42:47;;;;;;;;;;;;;;;16.84;nan;101443.69;5012162;28;19976;-79
2023/04/26 08:45:14;;;;;;;;;;;;;;;16.97;nan;101437.72;5015168;28;19964;-79
2023/04/26 08:47:44;;;;;;;;;;;;;;;17.10;nan;101439.06;5017717;28;19928;-79
2023/04/26 08:50:13;;;;;;;;;;;;;;;17.05;nan;101456.13;5016551;28;19921;-78
2023/04/26 08:52:40;;;;;;;;;;;;;;;16.89;nan;101451.84;5021489;28;20374;-78
2023/04/26 08:55:06;;;;;;;;;;;;;;;16.82;nan;101448.59;5011703;28;19931;-78
2023/04/26 08:57:32;;;;;;;;;;;;;;;16.91;nan;101441.53;5030110;28;20272;-79
2023/04/26 08:59:57;;;;;;;;;;;;;;;17.01;nan;101443.41;5012502;28;19972;-79
2023/04/26 09:02:23;;;;;;;;;;;;;;;17.06;nan;101446.94;5016248;28;20414;-79
2023/04/26 09:04:49;;;;;;;;;;;;;;;17.00;nan;101445.31;5015357;28;19971;-79
2023/04/26 09:07:38;;;;;;;;;;;;;;;17.05;nan;101450.69;5015794;28;19928;-78
2023/04/26 09:10:03;;;;;;;;;;;;;;;17.10;nan;101458.84;5007330;28;19921;-78
2023/04/26 09:12:29;;;;;;;;;;;;;;;17.07;nan;101445.03;5014979;28;20276;-79
2023/04/26 09:14:55;;;;;;;;;;;;;;;17.22;nan;101451.19;5016894;28;19945;-80
2023/04/26 09:17:33;;;;;;;;;;;;;;;17.38;nan;101453.88;5025970;28;19964;-79
2023/04/26 09:19:59;;;;;;;;;;;;;;;17.40;nan;101457.91;5025439;28;19921;-79
2023/04/26 09:22:29;;;;;;;;;;;;;;;17.36;nan;101456.03;5027071;28;19928;-81
2023/04/26 09:24:54;;;;;;;;;;;;;;;17.24;nan;101464.50;5023861;28;19918;-82
2023/04/26 09:27:20;;;;;;;;;;;;;;;17.26;nan;101467.72;5019665;28;19917;-80
2023/04/26 09:29:59;;;;;;;;;;;;;;;17.23;nan;101468.25;5028372;28;19943;-80
2023/04/26 09:32:25;;;;;;;;;;;;;;;17.23;nan;101473.66;5017798;28;20016;-81
2023/04/26 09:34:50;;;;;;;;;;;;;;;17.34;nan;101463.63;5019110;28;20181;-81
2023/04/26 09:37:16;;;;;;;;;;;;;;;17.37;nan;101476.63;5028835;28;20557;-82
2023/04/26 09:39:41;;;;;;;;;;;;;;;17.38;nan;101481.75;5020878;28;19918;-81
2023/04/26 09:42:07;;;;;;;;;;;;;;;17.33;nan;101475.56;5017820;28;19925;-80
2023/04/26 09:44:33;;;;;;;;;;;;;;;17.20;nan;101479.66;5012849;28;20014;-81
2023/04/26 09:46:59;;;;;;;;;;;;;;;17.12;nan;101482.94;5013408;28;20073;-80
2023/04/26 09:49:25;;;;;;;;;;;;;;;16.97;nan;101481.03;5038579;28;19921;-82
2023/04/26 09:52:03;;;;;;;;;;;;;;;16.98;nan;101476.44;5017561;28;19917;-81
2023/04/26 09:54:39;;;;;;;;;;;;;;;17.08;nan;101479.97;5016961;28;19917;-80
2023/04/26 09:57:04;;;;;;;;;;;;;;;17.33;nan;101475.56;5019006;28;20024;-82
2023/04/26 09:59:56;;;;;;;;;;;;;;;17.49;nan;101482.56;5019006;28;20052;-82
2023/04/26 10:02:23;;;;;;;;;;;;;;;17.40;nan;101481.47;5014010;28;19924;-82
2023/04/26 10:04:49;;;;;;;;;;;;;;;17.39;nan;101480.66;5016067;28;20465;-82
2023/04/26 10:07:16;;;;;;;;;;;;;;;17.45;nan;101482.31;5022207;28;19917;-82
2023/04/26 10:09:41;;;;;;;;;;;;;;;17.46;nan;101483.09;5020402;28;20053;-82
2023/04/26 10:12:10;;;;;;;;;;;;;;;17.51;nan;101477.66;5027949;28;19928;-80
2023/04/26 10:14:36;;;;;;;;;;;;;;;17.65;nan;101481.41;5028068;28;19917;-81
2023/04/26 10:17:03;;;;;;;;;;;;;;;17.86;nan;101478.63;5024848;28;19918;-79
2023/04/26 10:19:28;;;;;;;;;;;;;;;18.14;nan;101464.38;5029781;28;19917;-80
2023/04/26 10:21:55;;;;;;;;;;;;;;;18.33;nan;101465.34;5024532;28;19939;-81
2023/04/26 10:24:22;;;;;;;;;;;;;;;18.45;nan;101470.38;5027263;28;20301;-82
2023/04/26 10:26:48;;;;;;;;;;;;;;;18.47;nan;101454.63;5025408;28;20386;-80
2023/04/26 10:29:13;;;;;;;;;;;;;;;18.45;nan;101459.53;5025061;28;20402;-82
2023/04/26 10:31:57;;;;;;;;;;;;;;;18.70;nan;101461.28;5024626;28;19917;-82
2023/04/26 10:34:23;;;;;;;;;;;;;;;18.88;nan;101462.47;5025042;28;19999;-82
2023/04/26 10:37:10;;;;;;;;;;;;;;;19.06;nan;101459.03;5018233;28;20406;-82
2023/04/26 10:39:35;;;;;;;;;;;;;;;19.04;nan;101460.41;5014891;28;19925;-80
2023/04/26 10:42:22;;;;;;;;;;;;;;;19.08;nan;101472.31;5015704;28;20443;-81
2023/04/26 10:44:48;;;;;;;;;;;;;;;18.92;nan;101475.19;5015465;28;20012;-83
2023/04/26 10:47:21;;;;;;;;;;;;;;;18.81;nan;101465.50;5015856;28;20012;-80
2023/04/26 10:49:47;;;;;;;;;;;;;;;18.66;nan;101460.19;5009369;28;20506;-81
2023/04/26 10:52:16;;;;;;;;;;;;;;;18.65;nan;101466.72;5011226;28;20290;-81
2023/04/26 10:54:57;;;;;;;;;;;;;;;18.84;nan;101464.13;5008864;28;20326;-81
2023/04/26 10:57:41;;;;;;;;;;;;;;;19.05;nan;101470.19;5012271;28;19925;-80
2023/04/26 11:00:13;;;;;;;;;;;;;;;19.08;nan;101475.03;5010121;28;19925;-81
2023/04/26 11:02:57;;;;;;;;;;;;;;;18.82;nan;101464.41;5016027;28;19921;-81
2023/04/26 11:05:41;;;;;;;;;;;;;;;18.71;nan;101469.13;5009787;28;19926;-82
2023/04/26 11:08:12;;;;;;;;;;;;;;;18.94;nan;101464.03;5022669;28;19925;-82
2023/04/26 11:10:38;;;;;;;;;;;;;;;19.12;nan;101466.00;5010791;28;19949;-82
2023/04/26 11:13:03;;;;;;;;;;;;;;;18.96;nan;101468.06;5016218;28;19922;-80
2023/04/26 11:15:32;;;;;;;;;;;;;;;19.07;nan;101467.97;5013666;28;19928;-81
2023/04/26 11:18:00;;;;;;;;;;;;;;;19.04;nan;101471.28;5015266;28;19928;-82
2023/04/26 11:20:30;;;;;;;;;;;;;;;18.92;nan;101477.91;5010291;28;20390;-80
2023/04/26 11:22:56;;;;;;;;;;;;;;;18.66;nan;101482.72;5013744;28;19925;-82
2023/04/26 11:25:23;;;;;;;;;;;;;;;18.41;nan;101491.84;5010591;28;20114;-81
2023/04/26 11:27:48;;;;;;;;;;;;;;;18.25;nan;101494.94;5017163;28;19960;-81
2023/04/26 11:30:17;;;;;;;;;;;;;;;18.20;nan;101495.78;5017257;28;19963;-82
2023/04/26 11:32:44;;;;;;;;;;;;;;;18.06;nan;101503.72;5019138;28;19917;-82
2023/04/26 11:35:10;;;;;;;;;;;;;;;17.99;nan;101497.81;5020056;28;19975;-80
2023/04/26 11:37:35;;;;;;;;;;;;;;;18.06;nan;101498.31;5013908;28;20391;-80
2023/04/26 11:40:01;;;;;;;;;;;;;;;18.04;nan;101496.97;5012486;28;20533;-80
2023/04/26 11:42:26;;;;;;;;;;;;;;;17.94;nan;101503.25;5017684;28;19925;-80
2023/04/26 11:44:51;;;;;;;;;;;;;;;17.89;nan;101507.88;5015588;28;19920;-82
2023/04/26 11:47:18;;;;;;;;;;;;;;;17.94;nan;101511.38;5012436;28;20421;-81
2023/04/26 11:49:45;;;;;;;;;;;;;;;18.00;nan;101523.03;5013625;28;20370;-80
2023/04/26 11:52:10;;;;;;;;;;;;;;;17.92;nan;101518.97;5017333;28;20554;-83
2023/04/26 11:54:36;;;;;;;;;;;;;;;17.93;nan;101523.31;5011905;28;19981;-83
2023/04/26 11:57:15;;;;;;;;;;;;;;;18.02;nan;101515.44;5009903;28;19921;-81
2023/04/26 11:59:40;;;;;;;;;;;;;;;18.13;nan;101514.25;5011512;28;19917;-82
2023/04/26 12:02:07;;;;;;;;;;;;;;;18.24;nan;101520.44;5012829;28;19987;-81
2023/04/26 12:04:32;;;;;;;;;;;;;;;18.51;nan;101509.16;5013751;28;19925;-83
2023/04/26 12:06:58;;;;;;;;;;;;;;;18.84;nan;101502.13;5015109;28;19925;-82
2023/04/26 12:09:24;;;;;;;;;;;;;;;19.19;nan;101503.69;5011290;28;20294;-83
2023/04/26 12:11:58;;;;;;;;;;;;;;;19.52;nan;101504.69;5014444;28;19980;-83
2023/04/26 12:14:30;;;;;;;;;;;;;;;19.59;nan;101510.66;5016474;28;19932;-82
2023/04/26 12:16:57;;;;;;;;;;;;;;;19.40;nan;101510.56;5018088;28;19944;-82
2023/04/26 12:19:23;;;;;;;;;;;;;;;19.27;nan;101503.91;5011021;28;20017;-83
2023/04/26 12:21:49;;;;;;;;;;;;;;;19.24;nan;101509.09;5013161;28;19952;-81
2023/04/26 12:24:25;;;;;;;;;;;;;;;19.06;nan;101502.47;5010839;28;20012;-82
2023/04/26 12:26:50;;;;;;;;;;;;;;;18.94;nan;101518.34;5011211;28;20024;-82
2023/04/26 12:29:16;;;;;;;;;;;;;;;18.85;nan;101515.44;5016430;28;20012;-81
2023/04/26 12:31:41;;;;;;;;;;;;;;;18.70;nan;101532.66;5017152;28;19920;-81
2023/04/26 12:34:07;;;;;;;;;;;;;;;18.61;nan;101530.78;5018041;28;20458;-83
2023/04/26 12:36:32;;;;;;;;;;;;;;;18.63;nan;101529.44;5015388;28;19928;-81
2023/04/26 12:38:59;;;;;;;;;;;;;;;18.74;nan;101532.91;5014109;28;20315;-81
2023/04/26 12:41:25;;;;;;;;;;;;;;;18.89;nan;101523.81;5022999;28;20363;-82
2023/04/26 12:43:50;;;;;;;;;;;;;;;18.97;nan;101526.72;5025524;28;20027;-84
2023/04/26 12:46:15;;;;;;;;;;;;;;;19.01;nan;101538.63;5028350;28;20492;-83
2023/04/26 12:48:41;;;;;;;;;;;;;;;19.17;nan;101524.91;5028689;28;19925;-81
2023/04/26 12:51:06;;;;;;;;;;;;;;;19.32;nan;101522.84;5042714;28;19987;-84
2023/04/26 12:53:32;;;;;;;;;;;;;;;19.58;nan;101526.16;5026439;28;19925;-84